Time;durP1;ratioP1;P1;durP2;ratioP2;P2;SDS_P1;SDS_P2;PMS_P1;PMS_P2;Temp;Humidity;BMP_temperature;BMP_pressure;BME280_temperature;BME280_humidity;BME280_pressure;Samples;Min_cycle;Max_cycle;Signal;HPM_P1;HPM_P2
2022/08/10 00:00:48;;;;;;;;;7.75;5.75;;;;;26.52;35.80;101772.19;5021500;28;45458;-64
2022/08/10 00:03:13;;;;;;;;;7.00;6.00;;;;;26.52;36.15;101771.34;5020461;28;46276;-64
2022/08/10 00:05:39;;;;;;;;;8.25;6.25;;;;;26.50;36.18;101766.00;5019751;28;45355;-64
2022/08/10 00:08:04;;;;;;;;;6.50;6.50;;;;;26.52;36.01;101772.19;5020794;28;45261;-64
2022/08/10 00:10:30;;;;;;;;;7.00;4.75;;;;;26.50;35.68;101763.25;5020714;28;45528;-64
2022/08/10 00:12:55;;;;;;;;;7.25;4.75;;;;;26.50;35.85;101770.59;5020629;28;46021;-64
2022/08/10 00:15:22;;;;;;;;;7.50;7.00;;;;;26.50;36.13;101768.72;5020784;28;45257;-64
2022/08/10 00:17:47;;;;;;;;;7.25;7.25;;;;;26.47;36.18;101762.66;5020456;28;45296;-64
2022/08/10 00:20:13;;;;;;;;;6.75;6.75;;;;;26.47;36.29;101760.75;5020902;28;45146;-64
2022/08/10 00:22:39;;;;;;;;;6.00;6.00;;;;;26.48;36.42;101765.25;5018316;28;45218;-64
2022/08/10 00:25:05;;;;;;;;;6.00;6.00;;;;;26.47;36.43;101768.97;5020696;28;45279;-64
2022/08/10 00:27:31;;;;;;;;;7.00;7.00;;;;;26.44;36.44;101763.75;5020390;28;45408;-64
2022/08/10 00:29:56;;;;;;;;;8.25;7.25;;;;;26.44;36.17;101771.97;5020516;28;45562;-64
2022/08/10 00:32:22;;;;;;;;;3.75;3.75;;;;;26.38;36.05;101770.63;5020044;28;45388;-64
2022/08/10 00:34:48;;;;;;;;;6.00;6.00;;;;;26.33;36.03;101766.50;5020562;28;45410;-64
2022/08/10 00:37:16;;;;;;;;;8.00;6.75;;;;;26.30;36.24;101770.38;5020507;28;45384;-64
2022/08/10 00:39:42;;;;;;;;;8.00;6.75;;;;;26.26;36.27;101760.69;5020977;28;45469;-64
2022/08/10 00:42:09;;;;;;;;;6.75;6.75;;;;;26.25;37.05;101761.69;5020032;28;45358;-64
2022/08/10 00:44:40;;;;;;;;;5.00;5.00;;;;;26.23;36.67;101763.69;5020022;28;45245;-64
2022/08/10 00:47:07;;;;;;;;;5.75;4.25;;;;;26.16;36.31;101759.72;5020136;28;45389;-64
2022/08/10 00:49:32;;;;;;;;;4.00;4.00;;;;;26.13;36.40;101760.84;5020309;28;45451;-64
2022/08/10 00:51:58;;;;;;;;;6.00;6.00;;;;;26.13;36.28;101766.31;5018888;28;46120;-64
2022/08/10 00:54:24;;;;;;;;;6.00;6.00;;;;;26.10;36.78;101763.84;5020125;28;45194;-64
2022/08/10 00:56:49;;;;;;;;;6.00;6.00;;;;;26.08;36.42;101760.34;5020119;28;45459;-64
2022/08/10 00:59:15;;;;;;;;;5.75;5.75;;;;;26.07;36.30;101758.59;5020273;28;45222;-64
2022/08/10 01:01:40;;;;;;;;;5.25;5.25;;;;;26.07;37.26;101761.34;5019614;28;46076;-64
2022/08/10 01:04:06;;;;;;;;;6.00;6.00;;;;;26.06;36.59;101765.06;5019847;28;45280;-64
2022/08/10 01:06:57;;;;;;;;;6.75;5.75;;;;;26.04;36.71;101756.13;5020113;28;45267;-64
2022/08/10 01:10:01;;;;;;;;;9.75;5.25;;;;;26.01;36.40;101760.00;5020130;28;45244;-64
2022/08/10 01:12:38;;;;;;;;;5.00;5.00;;;;;25.95;36.68;101765.97;5019821;28;45280;-64
2022/08/10 01:15:13;;;;;;;;;7.50;5.75;;;;;25.92;36.73;101768.91;5019827;28;45255;-64
2022/08/10 01:17:53;;;;;;;;;6.00;6.00;;;;;25.89;37.32;101764.56;5019978;28;45233;-64
2022/08/10 01:20:36;;;;;;;;;5.25;5.25;;;;;25.89;37.31;101756.38;5018318;28;45236;-64
2022/08/10 01:23:07;;;;;;;;;7.50;6.75;;;;;25.89;36.63;101760.94;5019650;28;45433;-64
2022/08/10 01:25:39;;;;;;;;;5.50;5.50;;;;;25.85;37.42;101762.19;5019872;28;45541;-64
2022/08/10 01:28:13;;;;;;;;;5.25;5.25;;;;;25.84;36.77;101758.59;5006618;28;45309;-64
2022/08/10 01:30:41;;;;;;;;;6.75;5.50;;;;;25.82;36.85;101749.63;5019635;28;45499;-64
2022/08/10 01:33:10;;;;;;;;;4.25;4.25;;;;;25.79;37.14;101752.63;5019477;28;45431;-64
2022/08/10 01:35:56;;;;;;;;;7.75;7.50;;;;;25.78;37.27;101759.09;5019527;28;45346;-64
2022/08/10 01:38:33;;;;;;;;;6.25;5.50;;;;;25.67;37.12;101748.16;5019985;28;45321;-64
2022/08/10 01:41:09;;;;;;;;;6.00;5.00;;;;;25.66;37.24;101752.75;5019756;28;45362;-64
2022/08/10 01:43:41;;;;;;;;;7.00;7.00;;;;;25.65;37.40;101752.88;5021083;28;45506;-64
2022/08/10 01:46:10;;;;;;;;;7.75;7.75;;;;;25.57;37.14;101742.53;5022889;28;45332;-64
2022/08/10 01:48:41;;;;;;;;;5.00;4.00;;;;;25.57;37.84;101752.63;5023112;28;46530;-64
2022/08/10 01:51:13;;;;;;;;;6.25;5.00;;;;;25.53;37.94;101746.53;5021950;28;45312;-64
2022/08/10 01:53:43;;;;;;;;;6.75;6.25;;;;;25.54;37.10;101742.78;5022562;28;45759;-64
2022/08/10 01:56:13;;;;;;;;;6.25;6.25;;;;;25.49;37.75;101747.75;5023220;28;45425;-64
2022/08/10 01:58:39;;;;;;;;;9.50;7.25;;;;;25.50;37.92;101744.91;5021523;28;45341;-64
2022/08/10 02:01:08;;;;;;;;;6.25;6.25;;;;;25.47;37.39;101742.41;5022826;28;45372;-64
2022/08/10 02:03:36;;;;;;;;;7.00;5.25;;;;;25.48;37.22;101743.31;5022570;28;46514;-64
2022/08/10 02:06:06;;;;;;;;;4.00;3.75;;;;;25.47;38.01;101731.47;5022645;28;45213;-64
2022/08/10 02:08:33;;;;;;;;;7.25;7.25;;;;;25.49;38.19;101743.19;5022770;28;45449;-64
2022/08/10 02:11:00;;;;;;;;;6.25;5.00;;;;;25.47;38.10;101742.41;5022817;28;45249;-64
2022/08/10 02:13:27;;;;;;;;;5.25;5.25;;;;;25.46;37.97;101748.88;5022545;28;45319;-64
2022/08/10 02:15:55;;;;;;;;;11.50;8.00;;;;;25.44;37.77;101737.22;5022688;28;45311;-64
2022/08/10 02:18:22;;;;;;;;;5.00;5.00;;;;;25.47;38.22;101741.56;5021631;28;45952;-64
2022/08/10 02:20:50;;;;;;;;;6.25;3.25;;;;;25.45;37.82;101736.19;5022511;28;45431;-64
2022/08/10 02:23:20;;;;;;;;;6.00;6.00;;;;;25.42;38.03;101741.91;5022530;28;46190;-64
2022/08/10 02:25:48;;;;;;;;;7.00;5.00;;;;;25.43;38.12;101740.06;5022529;28;45487;-64
2022/08/10 02:28:17;;;;;;;;;6.00;4.25;;;;;25.42;38.26;101741.06;5022456;28;45468;-64
2022/08/10 02:30:44;;;;;;;;;7.00;5.75;;;;;25.40;38.42;101752.09;5022606;28;45282;-64
2022/08/10 02:33:10;;;;;;;;;4.25;4.25;;;;;25.38;37.71;101743.16;5022009;28;46416;-64
2022/08/10 02:35:37;;;;;;;;;6.75;6.25;;;;;25.35;37.99;101743.41;5022427;28;45654;-64
2022/08/10 02:38:06;;;;;;;;;6.00;5.00;;;;;25.33;38.02;101735.31;5021242;28;45445;-64
2022/08/10 02:40:37;;;;;;;;;6.00;5.00;;;;;25.35;38.57;101745.28;5022242;28;45249;-64
2022/08/10 02:43:19;;;;;;;;;7.25;7.00;;;;;25.31;37.93;101742.78;5022041;28;46437;-64
2022/08/10 02:45:48;;;;;;;;;5.00;5.00;;;;;25.31;37.96;101744.66;5021956;28;45447;-64
2022/08/10 02:48:27;;;;;;;;;6.00;6.00;;;;;25.28;38.75;101751.22;5020874;28;45332;-64
2022/08/10 02:51:00;;;;;;;;;6.50;6.25;;;;;25.27;38.76;101745.88;5011170;28;45675;-64
2022/08/10 02:53:25;;;;;;;;;6.00;6.00;;;;;25.26;38.07;101745.00;5021739;28;45328;-64
2022/08/10 02:56:30;;;;;;;;;6.00;6.00;;;;;25.24;38.62;101748.81;5020885;28;45289;-64
2022/08/10 02:59:07;;;;;;;;;4.50;4.00;;;;;25.18;38.64;101744.69;5021854;28;45306;-64
2022/08/10 03:01:40;;;;;;;;;5.00;5.00;;;;;25.18;38.86;101749.31;5021548;28;45235;-63
2022/08/10 03:04:15;;;;;;;;;5.50;5.50;;;;;25.12;38.46;101745.19;5021648;28;45244;-64
2022/08/10 03:06:46;;;;;;;;;6.50;6.00;;;;;25.14;38.17;101749.53;5021748;28;45522;-64
2022/08/10 03:09:15;;;;;;;;;6.75;5.50;;;;;25.11;38.24;101752.50;5021998;28;45418;-64
2022/08/10 03:11:42;;;;;;;;;7.00;6.75;;;;;25.09;38.90;101759.06;5021452;28;45342;-64
2022/08/10 03:14:09;;;;;;;;;5.25;5.25;;;;;25.09;38.92;101753.59;5021694;28;46192;-64
2022/08/10 03:16:36;;;;;;;;;6.00;6.00;;;;;25.07;38.99;101753.72;5021458;28;45420;-64
2022/08/10 03:19:04;;;;;;;;;6.25;6.25;;;;;25.06;38.68;101749.28;5018683;28;45355;-64
2022/08/10 03:21:32;;;;;;;;;6.25;6.25;;;;;25.03;38.57;101754.09;5021354;28;45522;-64
2022/08/10 03:24:01;;;;;;;;;5.50;5.50;;;;;25.00;38.57;101748.88;5021549;28;45257;-64
2022/08/10 03:26:29;;;;;;;;;6.75;6.75;;;;;24.97;38.73;101747.25;5021330;28;45534;-64
2022/08/10 03:28:56;;;;;;;;;5.50;5.50;;;;;24.96;38.67;101743.66;5021399;28;45398;-64
2022/08/10 03:31:22;;;;;;;;;6.00;6.00;;;;;24.92;38.58;101739.41;5021543;28;45602;-64
2022/08/10 03:33:48;;;;;;;;;8.00;8.00;;;;;24.89;39.32;101741.50;5021358;28;46197;-64
2022/08/10 03:36:14;;;;;;;;;7.50;7.50;;;;;24.87;39.02;101744.34;5021449;28;45348;-64
2022/08/10 03:38:42;;;;;;;;;3.00;3.00;;;;;24.88;39.23;101740.63;5019894;28;45238;-63
2022/08/10 03:41:12;;;;;;;;;5.00;5.00;;;;;24.87;39.35;101746.22;5021408;28;45295;-64
2022/08/10 03:43:41;;;;;;;;;5.50;4.25;;;;;24.83;38.80;101747.47;5021021;28;45298;-64
2022/08/10 03:46:09;;;;;;;;;6.00;6.00;;;;;24.80;39.34;101734.03;5020921;28;45485;-64
2022/08/10 03:48:37;;;;;;;;;5.25;5.25;;;;;24.81;38.93;101746.69;5021296;28;45267;-64
2022/08/10 03:51:04;;;;;;;;;5.75;5.75;;;;;24.77;38.76;101744.22;5021132;28;45467;-64
2022/08/10 03:53:29;;;;;;;;;8.00;6.75;;;;;24.77;39.43;101748.78;5020649;28;47083;-64
2022/08/10 03:55:55;;;;;;;;;7.25;5.00;;;;;24.76;39.21;101745.19;5020183;28;45232;-64
2022/08/10 03:58:21;;;;;;;;;6.00;6.00;;;;;24.73;39.01;101745.41;5021051;28;45423;-64
2022/08/10 04:00:49;;;;;;;;;6.50;5.75;;;;;24.66;39.08;101741.44;5019845;28;45265;-64
2022/08/10 04:03:15;;;;;;;;;6.00;6.00;;;;;24.72;39.11;101748.25;5020511;28;47356;-64
2022/08/10 04:05:41;;;;;;;;;6.25;4.75;;;;;24.67;39.36;101754.06;5020616;28;45247;-64
2022/08/10 04:08:06;;;;;;;;;5.00;5.00;;;;;24.65;39.88;101747.84;5020913;28;45368;-64
2022/08/10 04:10:31;;;;;;;;;6.75;6.75;;;;;24.62;39.87;101748.09;5019762;28;45484;-64
2022/08/10 04:12:57;;;;;;;;;7.75;7.75;;;;;24.63;39.76;101755.31;5019649;28;46055;-64
2022/08/10 04:15:23;;;;;;;;;7.00;7.00;;;;;24.62;39.63;101753.53;5020602;28;46025;-64
2022/08/10 04:17:49;;;;;;;;;6.25;6.25;;;;;24.59;39.28;101751.03;5020554;28;45523;-64
2022/08/10 04:20:24;;;;;;;;;5.50;5.50;;;;;24.55;39.86;101752.28;5020880;28;45237;-64
2022/08/10 04:22:52;;;;;;;;;5.00;5.00;;;;;24.50;40.09;101759.91;5020618;28;45281;-64
2022/08/10 04:25:19;;;;;;;;;7.25;6.75;;;;;24.46;39.90;101766.56;5020834;28;45507;-64
2022/08/10 04:27:45;;;;;;;;;7.50;6.50;;;;;24.40;39.92;101748.81;5020284;28;45409;-64
2022/08/10 04:30:11;;;;;;;;;5.75;5.75;;;;;24.35;39.95;101756.47;5020620;28;45455;-64
2022/08/10 04:32:38;;;;;;;;;6.75;6.00;;;;;24.33;39.77;101759.31;5020113;28;46064;-64
2022/08/10 04:35:06;;;;;;;;;6.00;6.00;;;;;24.32;40.19;101751.25;5020652;28;45209;-64
2022/08/10 04:37:36;;;;;;;;;5.50;4.75;;;;;24.30;40.16;101750.50;5020531;28;45340;-64
2022/08/10 04:40:02;;;;;;;;;5.50;4.50;;;;;24.28;40.01;101753.34;5019416;28;45454;-64
2022/08/10 04:42:27;;;;;;;;;7.75;5.25;;;;;24.27;40.06;101757.03;5018772;28;47055;-64
2022/08/10 04:44:53;;;;;;;;;5.00;5.00;;;;;24.27;39.88;101756.19;5020217;28;45268;-64
2022/08/10 04:47:18;;;;;;;;;4.25;4.25;;;;;24.25;40.22;101756.28;5020339;28;45226;-64
2022/08/10 04:49:43;;;;;;;;;5.50;5.50;;;;;24.24;40.17;101757.28;5020447;28;45419;-64
2022/08/10 04:52:09;;;;;;;;;6.50;5.00;;;;;24.23;40.83;101758.28;5019965;28;46001;-64
2022/08/10 04:54:34;;;;;;;;;5.00;5.00;;;;;24.23;40.26;101769.19;5020077;28;45687;-64
2022/08/10 04:56:59;;;;;;;;;4.50;4.50;;;;;24.23;40.41;101771.91;5020026;28;45309;-64
2022/08/10 04:59:24;;;;;;;;;6.25;5.25;;;;;24.17;40.29;101767.78;5020353;28;45207;-64
2022/08/10 05:01:50;;;;;;;;;8.00;8.00;;;;;24.12;40.46;101766.38;5019385;28;51312;-64
2022/08/10 05:04:16;;;;;;;;;5.00;4.25;;;;;24.10;40.30;101774.66;5008871;28;47644;-64
2022/08/10 05:06:41;;;;;;;;;5.00;5.00;;;;;24.08;40.48;101773.03;5019311;28;45385;-64
2022/08/10 05:09:07;;;;;;;;;5.00;5.00;;;;;24.03;40.32;101768.78;5019930;28;45309;-64
2022/08/10 05:11:32;;;;;;;;;5.00;5.00;;;;;24.04;40.68;101781.44;5019621;28;46123;-64
2022/08/10 05:13:57;;;;;;;;;5.75;5.75;;;;;24.00;40.48;101774.44;5019882;28;45237;-64
2022/08/10 05:16:23;;;;;;;;;8.00;5.75;;;;;24.00;40.91;101782.63;5019617;28;45423;-64
2022/08/10 05:18:48;;;;;;;;;4.00;4.00;;;;;23.98;40.88;101776.44;5019055;28;45525;-64
2022/08/10 05:21:13;;;;;;;;;7.50;7.25;;;;;23.96;40.76;101783.84;5019867;28;46170;-64
2022/08/10 05:23:39;;;;;;;;;5.75;5.75;;;;;23.93;40.98;101780.50;5019854;28;45404;-64
2022/08/10 05:26:04;;;;;;;;;4.75;4.75;;;;;23.88;41.23;101778.09;5019787;28;45388;-64
2022/08/10 05:28:30;;;;;;;;;7.00;7.00;;;;;23.88;41.42;101778.09;5019394;28;45478;-64
2022/08/10 05:30:55;;;;;;;;;5.75;5.75;;;;;23.89;41.48;101781.69;5019717;28;45311;-64
2022/08/10 05:33:20;;;;;;;;;7.50;6.50;;;;;23.86;41.19;101791.81;5019526;28;45372;-64
2022/08/10 05:35:45;;;;;;;;;5.00;5.00;;;;;23.80;41.48;101791.38;5018758;28;45365;-64
2022/08/10 05:38:12;;;;;;;;;4.25;4.25;;;;;23.75;41.46;101790.81;5019524;28;50482;-64
2022/08/10 05:40:40;;;;;;;;;5.25;4.25;;;;;23.76;41.56;101792.59;5019435;28;46101;-64
2022/08/10 05:43:06;;;;;;;;;5.75;5.75;;;;;23.73;41.54;101782.75;5019409;28;45364;-64
2022/08/10 05:45:31;;;;;;;;;3.75;3.75;;;;;23.70;41.57;101788.41;5019481;28;45525;-64
2022/08/10 05:47:57;;;;;;;;;6.75;5.00;;;;;23.70;41.43;101782.09;5019287;28;45478;-64
2022/08/10 05:50:31;;;;;;;;;5.25;5.25;;;;;23.64;41.47;101792.47;5019097;28;45715;-64
2022/08/10 05:52:57;;;;;;;;;6.25;5.50;;;;;23.56;41.80;101789.41;5017373;28;45432;-63
2022/08/10 05:55:29;;;;;;;;;8.00;6.50;;;;;23.55;41.92;101782.22;5019196;28;45371;-64
2022/08/10 05:57:54;;;;;;;;;5.00;5.00;;;;;23.56;42.06;101781.25;5019428;28;45339;-64
2022/08/10 06:00:23;;;;;;;;;6.75;6.25;;;;;23.59;42.10;101786.47;5019139;28;45308;-64
2022/08/10 06:02:53;;;;;;;;;10.00;6.50;;;;;23.57;42.02;101795.72;5018991;28;45511;-64
2022/08/10 06:05:23;;;;;;;;;7.00;6.25;;;;;23.55;42.25;101790.38;5019320;28;45162;-64
2022/08/10 06:07:59;;;;;;;;;7.50;7.50;;;;;23.55;42.10;101786.78;5019161;28;45297;-64
2022/08/10 06:10:27;;;;;;;;;5.00;5.00;;;;;23.51;42.07;101780.69;5019149;28;46912;-64
2022/08/10 06:15:41;;;;;;;;;7.00;6.00;;;;;23.55;42.24;101801.28;5019407;28;45292;-64
2022/08/10 06:18:07;;;;;;;;;6.50;5.50;;;;;23.53;41.95;101789.63;5018876;28;45322;-64
2022/08/10 06:20:33;;;;;;;;;6.75;6.75;;;;;23.53;42.05;101794.22;5018907;28;45319;-64
2022/08/10 06:23:01;;;;;;;;;7.25;7.25;;;;;23.58;42.12;101798.34;5017822;28;45419;-64
2022/08/10 06:25:30;;;;;;;;;5.75;5.75;;;;;23.64;42.30;101800.66;5019225;28;45241;-64
2022/08/10 06:27:57;;;;;;;;;8.00;8.00;;;;;23.64;42.08;101795.19;5018667;28;45262;-64
2022/08/10 06:30:25;;;;;;;;;7.00;6.25;;;;;23.64;42.12;101803.38;5020226;28;46333;-64
2022/08/10 06:32:55;;;;;;;;;6.75;6.75;;;;;23.62;42.25;101801.72;5022331;28;45850;-64
2022/08/10 06:35:24;;;;;;;;;5.75;4.75;;;;;23.60;42.32;101810.00;5022573;28;45304;-64
2022/08/10 06:37:50;;;;;;;;;6.50;6.50;;;;;23.60;42.29;101804.56;5022525;28;45304;-64
2022/08/10 06:40:16;;;;;;;;;7.00;6.00;;;;;23.62;42.61;101805.34;5022115;28;46474;-64
2022/08/10 06:42:46;;;;;;;;;9.75;8.00;;;;;23.61;42.50;101806.31;5022089;28;45194;-64
2022/08/10 06:45:16;;;;;;;;;7.00;6.00;;;;;23.65;42.69;101796.06;5022115;28;45430;-64
2022/08/10 06:48:19;;;;;;;;;5.00;5.00;;;;;23.67;42.31;101805.88;5022425;28;45518;-64
2022/08/10 06:50:48;;;;;;;;;7.00;6.00;;;;;23.69;42.14;101794.88;5019591;28;46199;-64
2022/08/10 06:53:20;;;;;;;;;5.50;5.50;;;;;23.72;42.04;101804.66;5022089;28;45225;-64
2022/08/10 06:55:50;;;;;;;;;6.75;6.25;;;;;23.74;42.31;101806.31;5022217;28;45296;-64
2022/08/10 06:58:20;;;;;;;;;6.25;6.25;;;;;23.76;42.39;101811.66;5021993;28;45542;-64
2022/08/10 07:00:47;;;;;;;;;5.25;5.25;;;;;23.79;42.33;101804.13;5019777;28;46641;-64
2022/08/10 07:03:16;;;;;;;;;7.00;7.00;;;;;23.82;42.39;101806.69;5021373;28;45182;-64
2022/08/10 07:05:48;;;;;;;;;6.50;6.50;;;;;23.85;42.53;101811.88;5022030;28;45308;-64
2022/08/10 07:08:17;;;;;;;;;5.25;5.25;;;;;23.89;42.21;101806.22;5021728;28;45351;-64
2022/08/10 07:10:45;;;;;;;;;8.50;5.75;;;;;23.93;42.17;101808.63;5021725;28;46144;-64
2022/08/10 07:13:14;;;;;;;;;6.00;6.00;;;;;23.93;41.92;101800.44;5018819;28;45447;-64
2022/08/10 07:15:40;;;;;;;;;6.75;5.75;;;;;23.94;42.24;101804.91;5014052;28;45309;-64
2022/08/10 07:18:07;;;;;;;;;6.75;6.75;;;;;24.01;41.98;101805.34;5018936;28;45537;-64
2022/08/10 07:20:33;;;;;;;;;7.75;7.50;;;;;24.04;42.00;101799.69;5021766;28;46188;-64
2022/08/10 07:23:00;;;;;;;;;8.50;7.50;;;;;24.03;41.77;101792.47;5019953;28;45622;-64
2022/08/10 07:25:27;;;;;;;;;8.50;8.50;;;;;24.03;41.96;101798.78;5021826;28;45366;-64
2022/08/10 07:27:55;;;;;;;;;6.75;6.00;;;;;24.09;42.03;101799.31;5019795;28;45436;-64
2022/08/10 07:30:20;;;;;;;;;7.75;7.75;;;;;24.11;41.70;101792.78;5021404;28;45372;-64
2022/08/10 07:32:48;;;;;;;;;9.50;7.00;;;;;24.14;42.10;101799.84;5021228;28;45474;-64
2022/08/10 07:35:16;;;;;;;;;7.00;7.00;;;;;24.16;41.55;101796.03;5020487;28;45315;-64
2022/08/10 07:37:46;;;;;;;;;7.25;7.00;;;;;24.21;42.08;101793.84;5021349;28;45249;-64
2022/08/10 07:40:14;;;;;;;;;8.75;6.75;;;;;24.24;41.67;101800.94;5020674;28;46605;-64
2022/08/10 07:42:42;;;;;;;;;6.75;6.75;;;;;24.26;41.51;101790.78;5021028;28;45298;-64
2022/08/10 07:45:08;;;;;;;;;6.50;6.50;;;;;24.30;42.29;101797.75;5021631;28;45598;-64
2022/08/10 07:47:41;;;;;;;;;9.00;9.00;;;;;24.33;41.50;101793.94;5021123;28;45607;-64
2022/08/10 07:50:10;;;;;;;;;8.25;7.50;;;;;24.33;41.47;101792.06;5020816;28;46404;-64
2022/08/10 07:52:37;;;;;;;;;10.50;8.50;;;;;24.38;41.41;101795.31;5021269;28;45354;-64
2022/08/10 07:55:04;;;;;;;;;7.75;6.50;;;;;24.46;42.19;101804.78;5021063;28;45309;-64
2022/08/10 07:57:34;;;;;;;;;9.00;8.50;;;;;24.50;41.70;101801.72;5019385;28;45737;-64
2022/08/10 08:00:04;;;;;;;;;9.25;7.50;;;;;24.57;41.43;101804.88;5020819;28;46117;-63
2022/08/10 08:02:38;;;;;;;;;11.00;10.00;;;;;24.65;41.43;101804.31;5020672;28;45443;-63
2022/08/10 08:05:10;;;;;;;;;7.75;7.75;;;;;24.71;41.73;101814.78;5021218;28;45475;-63
2022/08/10 08:07:38;;;;;;;;;7.00;7.00;;;;;24.78;41.35;101810.59;5021209;28;45462;-63
2022/08/10 08:10:05;;;;;;;;;10.00;8.75;;;;;24.81;40.74;101804.91;5020520;28;45409;-63
2022/08/10 08:12:32;;;;;;;;;4.25;3.75;;;;;24.87;40.74;101798.97;5020727;28;45417;-63
2022/08/10 08:14:59;;;;;;;;;7.25;7.25;;;;;24.96;40.58;101805.59;5020788;28;45444;-63
2022/08/10 08:17:25;;;;;;;;;7.75;7.75;;;;;25.02;40.49;101794.19;5020564;28;45758;-63
2022/08/10 08:19:54;;;;;;;;;9.00;9.00;;;;;25.05;40.79;101799.41;5020441;28;46412;-63
2022/08/10 08:22:20;;;;;;;;;7.25;7.25;;;;;25.09;40.75;101795.47;5020721;28;45313;-63
2022/08/10 08:24:46;;;;;;;;;6.25;6.25;;;;;25.14;40.86;101800.56;5020704;28;45314;-63
2022/08/10 08:27:15;;;;;;;;;9.00;9.00;;;;;25.18;40.63;101779.34;5017693;28;45211;-63
2022/08/10 08:29:43;;;;;;;;;12.50;8.25;;;;;25.25;41.04;101788.81;5010479;28;45618;-63
2022/08/10 08:32:10;;;;;;;;;11.75;10.25;;;;;25.31;40.36;101788.38;5018528;28;45504;-64
2022/08/10 08:34:38;;;;;;;;;10.50;8.25;;;;;25.31;39.83;101781.03;5020460;28;45422;-64
2022/08/10 08:37:06;;;;;;;;;10.25;9.00;;;;;25.35;40.19;101781.66;5020409;28;45512;-63
2022/08/10 08:39:32;;;;;;;;;11.50;10.75;;;;;25.43;39.34;101781.94;5020333;28;46356;-64
2022/08/10 08:42:32;;;;;;;;;8.75;8.75;;;;;25.52;40.26;101783.06;5020121;28;45285;-64
2022/08/10 08:45:22;;;;;;;;;9.50;8.25;;;;;25.61;39.22;101782.34;5020630;28;45301;-64
2022/08/10 08:48:18;;;;;;;;;10.00;10.00;;;;;25.66;39.91;101785.56;5020090;28;45391;-64
2022/08/10 08:51:01;;;;;;;;;9.50;9.50;;;;;25.73;38.99;101783.22;5020042;28;47261;-63
2022/08/10 08:53:36;;;;;;;;;10.25;8.50;;;;;25.78;39.17;101772.78;5018774;28;45663;-63
2022/08/10 08:56:33;;;;;;;;;9.00;9.00;;;;;25.83;38.21;101776.00;5020376;28;45511;-63
2022/08/10 08:59:10;;;;;;;;;10.75;9.25;;;;;25.85;38.44;101784.09;5000542;28;45319;-63
2022/08/10 09:01:57;;;;;;;;;11.25;9.75;;;;;25.87;38.15;101772.00;5019598;28;45359;-63
2022/08/10 09:04:31;;;;;;;;;10.50;10.00;;;;;25.91;37.52;101775.38;5011832;28;45446;-63
2022/08/10 09:06:56;;;;;;;;;9.00;9.00;;;;;25.98;38.64;101767.59;5020104;28;45273;-63
2022/08/10 09:09:47;;;;;;;;;11.25;10.00;;;;;26.07;37.25;101766.81;5020061;28;45522;-63
2022/08/10 09:12:21;;;;;;;;;9.25;9.25;;;;;26.11;37.24;101767.44;5019739;28;46408;-63
2022/08/10 09:15:10;;;;;;;;;11.25;11.00;;;;;26.17;38.24;101761.47;5016987;28;45597;-63
2022/08/10 09:17:54;;;;;;;;;9.50;8.50;;;;;26.23;38.03;101761.81;5019692;28;45374;-63
2022/08/10 09:20:41;;;;;;;;;12.00;11.00;;;;;26.31;37.68;101769.41;5020005;28;45296;-63
2022/08/10 09:23:30;;;;;;;;;12.00;10.75;;;;;26.36;37.33;101760.78;5019576;28;47241;-63
2022/08/10 09:26:02;;;;;;;;;10.50;10.50;;;;;26.40;37.45;101759.56;5019758;28;45240;-62
2022/08/10 09:28:35;;;;;;;;;9.75;9.00;;;;;26.47;37.48;101765.38;5019784;28;45220;-63
2022/08/10 09:31:07;;;;;;;;;10.75;10.75;;;;;26.48;37.45;101750.69;5019431;28;45316;-63
2022/08/10 09:33:54;;;;;;;;;9.25;9.25;;;;;26.54;36.85;101753.75;5019532;28;45568;-63
2022/08/10 09:36:34;;;;;;;;;9.75;8.75;;;;;26.59;37.38;101747.91;5019535;28;45368;-63
2022/08/10 09:39:09;;;;;;;;;11.25;11.00;;;;;26.65;37.33;101746.53;5015503;28;45300;-63
2022/08/10 09:41:53;;;;;;;;;10.75;10.50;;;;;26.72;36.40;101750.50;5019450;28;45277;-62
2022/08/10 09:44:44;;;;;;;;;8.75;8.75;;;;;26.80;36.82;101748.00;5019429;28;46150;-62
2022/08/10 09:47:31;;;;;;;;;11.50;10.50;;;;;26.87;36.46;101740.97;5019283;28;45238;-62
2022/08/10 09:50:08;;;;;;;;;10.00;10.00;;;;;26.95;36.44;101748.53;5019311;28;45479;-63
2022/08/10 09:52:42;;;;;;;;;11.25;10.75;;;;;27.02;36.75;101741.53;5019444;28;45642;-62
2022/08/10 09:55:34;;;;;;;;;11.00;11.00;;;;;27.13;36.38;101743.31;5019321;28;45566;-63
2022/08/10 09:58:19;;;;;;;;;12.75;10.50;;;;;27.18;36.47;101755.63;5019346;28;45453;-64
2022/08/10 10:00:51;;;;;;;;;11.50;10.00;;;;;27.19;36.11;101729.09;5019316;28;45262;-64
2022/08/10 10:03:28;;;;;;;;;8.50;7.25;;;;;27.31;36.09;101739.00;5019129;28;45415;-64
2022/08/10 10:06:28;;;;;;;;;10.00;10.00;;;;;27.46;37.00;101734.03;5022765;28;47238;-64
2022/08/10 10:09:14;;;;;;;;;11.75;10.00;;;;;27.59;35.85;101728.34;5022071;28;45352;-63
2022/08/10 10:12:20;;;;;;;;;10.25;9.25;;;;;27.67;35.44;101722.19;5022484;28;45169;-64
2022/08/10 10:15:19;;;;;;;;;12.50;11.00;;;;;27.72;35.25;101722.63;5022494;28;45313;-64
2022/08/10 10:17:53;;;;;;;;;9.75;9.75;;;;;27.77;34.96;101714.00;5022139;28;46330;-64
2022/08/10 10:20:31;;;;;;;;;11.75;11.75;;;;;27.82;35.51;101709.81;5022599;28;45547;-63
2022/08/10 10:23:06;;;;;;;;;10.25;10.25;;;;;27.89;34.61;101707.38;5022503;28;45272;-64
2022/08/10 10:25:45;;;;;;;;;10.75;9.75;;;;;27.96;35.14;101700.34;5022526;28;45415;-64
2022/08/10 10:28:22;;;;;;;;;14.00;14.00;;;;;28.04;33.77;101707.88;5009744;28;46340;-64
2022/08/10 10:31:05;;;;;;;;;9.00;8.25;;;;;28.04;34.01;101692.28;5022141;28;45525;-64
2022/08/10 10:33:55;;;;;;;;;8.25;7.00;;;;;28.10;33.55;101693.59;5022600;28;45279;-64
2022/08/10 10:36:23;;;;;;;;;11.25;10.25;;;;;28.13;33.95;101703.41;5022406;28;45378;-64
2022/08/10 10:38:50;;;;;;;;;8.25;8.25;;;;;28.18;34.17;101693.75;5021089;28;46118;-64
2022/08/10 10:41:35;;;;;;;;;9.50;9.50;;;;;28.24;33.37;101698.66;5021338;28;45408;-64
2022/08/10 10:44:20;;;;;;;;;9.00;9.00;;;;;28.30;33.34;101686.28;5022205;28;45262;-64
2022/08/10 10:47:03;;;;;;;;;13.50;9.25;;;;;28.43;33.02;101696.94;5021840;28;45387;-64
2022/08/10 10:49:48;;;;;;;;;9.75;9.75;;;;;28.52;32.66;101681.47;5022103;28;46374;-64
2022/08/10 10:52:31;;;;;;;;;10.50;9.25;;;;;28.59;32.24;101679.94;5020605;28;45448;-64
2022/08/10 10:55:21;;;;;;;;;7.75;7.75;;;;;28.66;31.63;101682.97;5022250;28;45540;-64
2022/08/10 10:58:27;;;;;;;;;10.25;8.50;;;;;28.77;31.13;101680.09;5022043;28;45344;-64
2022/08/10 11:01:13;;;;;;;;;9.75;9.25;;;;;28.84;31.19;101683.97;5021778;28;46043;-64
2022/08/10 11:03:44;;;;;;;;;9.50;9.25;;;;;28.92;30.80;101672.22;5021622;28;45360;-64
2022/08/10 11:06:44;;;;;;;;;9.00;9.00;;;;;28.97;30.82;101661.69;5022063;28;45256;-63
2022/08/10 11:09:18;;;;;;;;;8.75;8.25;;;;;29.03;31.16;101663.81;5021698;28;45506;-64
2022/08/10 11:11:47;;;;;;;;;8.50;8.50;;;;;29.09;30.96;101663.25;5021553;28;46236;-64
2022/08/10 11:14:36;;;;;;;;;7.00;7.00;;;;;29.16;29.94;101666.25;5021760;28;45281;-64
2022/08/10 11:17:13;;;;;;;;;9.00;9.00;;;;;29.23;29.60;101659.16;5020669;28;45319;-64
2022/08/10 11:19:48;;;;;;;;;8.00;8.00;;;;;29.26;29.10;101655.25;5021480;28;45381;-63
2022/08/10 11:22:26;;;;;;;;;7.75;7.75;;;;;29.33;29.10;101660.00;5021601;28;46242;-64
2022/08/10 11:25:13;;;;;;;;;8.00;8.00;;;;;29.35;29.14;101646.09;5021852;28;45309;-64
2022/08/10 11:27:58;;;;;;;;;9.25;8.00;;;;;29.42;28.73;101652.75;5020858;28;45756;-64
2022/08/10 11:30:32;;;;;;;;;8.25;8.25;;;;;29.45;29.19;101646.91;5021443;28;45455;-64
2022/08/10 11:33:25;;;;;;;;;9.25;8.25;;;;;29.48;29.51;101646.63;5021118;28;46274;-64
2022/08/10 11:35:59;;;;;;;;;7.00;7.00;;;;;29.55;29.03;101642.25;5021352;28;45543;-63
2022/08/10 11:38:31;;;;;;;;;9.00;8.50;;;;;29.60;29.81;101644.53;5021615;28;45265;-64
2022/08/10 11:41:16;;;;;;;;;9.25;8.25;;;;;29.70;29.57;101633.47;5021185;28;45331;-64
2022/08/10 11:43:52;;;;;;;;;6.00;6.00;;;;;29.73;28.84;101628.53;5020969;28;46101;-64
2022/08/10 11:46:26;;;;;;;;;7.00;7.00;;;;;29.77;29.04;101639.22;5021001;28;45474;-64
2022/08/10 11:49:03;;;;;;;;;9.50;9.25;;;;;29.75;28.36;101628.38;5021194;28;45220;-64